Time;durP1;ratioP1;P1;durP2;ratioP2;P2;SDS_P1;SDS_P2;PMS_P1;PMS_P2;Temp;Humidity;BMP_temperature;BMP_pressure;BME280_temperature;BME280_humidity;BME280_pressure;Samples;Min_cycle;Max_cycle;Signal;HPM_P1;HPM_P2
2023/06/13 00:01:48;;;;;;;14.90;10.23;;;;;;;;;;5070835;28;20482;-66
2023/06/13 00:04:21;;;;;;;8.00;6.25;;;;;;;;;;5071407;28;20063;-61
2023/06/13 00:06:47;;;;;;;20.98;11.40;;;;;;;;;;5071211;28;20501;-61
2023/06/13 00:09:13;;;;;;;16.83;10.10;;;;;;;;;;5070992;28;20040;-61
2023/06/13 00:11:39;;;;;;;27.73;15.27;;;;;;;;;;5071047;28;20020;-61
2023/06/13 00:14:05;;;;;;;20.40;12.88;;;;;;;;;;5071263;28;20024;-62
2023/06/13 00:16:32;;;;;;;12.68;6.93;;;;;;;;;;5071157;28;20375;-61
2023/06/13 00:18:58;;;;;;;15.63;8.15;;;;;;;;;;5071119;28;20082;-60
2023/06/13 00:21:24;;;;;;;22.85;14.25;;;;;;;;;;5052967;28;20082;-61
2023/06/13 00:23:50;;;;;;;21.08;12.98;;;;;;;;;;5070562;28;20069;-61
2023/06/13 00:26:16;;;;;;;10.30;6.50;;;;;;;;;;5071007;28;20021;-62
2023/06/13 00:28:42;;;;;;;15.95;8.57;;;;;;;;;;5070644;28;20024;-65
2023/06/13 00:31:08;;;;;;;14.70;9.27;;;;;;;;;;5071013;28;20031;-62
2023/06/13 00:33:34;;;;;;;24.27;14.82;;;;;;;;;;5070844;28;20035;-62
2023/06/13 00:36:00;;;;;;;17.67;11.13;;;;;;;;;;5070610;28;20123;-61
2023/06/13 00:38:28;;;;;;;12.45;8.07;;;;;;;;;;5070540;28;20534;-60
2023/06/13 00:40:54;;;;;;;15.98;8.35;;;;;;;;;;5070965;28;20035;-67
2023/06/13 00:43:20;;;;;;;60.95;33.95;;;;;;;;;;5070318;28;20048;-60
2023/06/13 00:45:47;;;;;;;6.90;5.32;;;;;;;;;;5069385;28;20024;-61
2023/06/13 00:48:13;;;;;;;8.23;5.18;;;;;;;;;;5070351;28;20063;-61
2023/06/13 00:50:40;;;;;;;10.43;4.85;;;;;;;;;;5069808;28;20020;-61
2023/06/13 00:53:09;;;;;;;10.82;6.28;;;;;;;;;;5070551;28;20043;-60
2023/06/13 00:55:36;;;;;;;9.77;5.25;;;;;;;;;;5070112;28;20062;-61
2023/06/13 00:58:05;;;;;;;12.57;7.90;;;;;;;;;;5070447;28;20059;-61
2023/06/13 01:00:32;;;;;;;15.65;10.02;;;;;;;;;;5070247;28;20119;-64
2023/06/13 01:02:58;;;;;;;19.40;12.07;;;;;;;;;;5070397;28;20021;-61
2023/06/13 01:05:28;;;;;;;11.90;6.85;;;;;;;;;;5069762;28;20108;-60
2023/06/13 01:07:58;;;;;;;9.45;7.03;;;;;;;;;;5057126;28;20119;-60
2023/06/13 01:10:28;;;;;;;9.10;5.95;;;;;;;;;;5070185;28;20021;-60
2023/06/13 01:13:09;;;;;;;9.30;5.03;;;;;;;;;;5070122;28;20446;-60
2023/06/13 01:15:39;;;;;;;9.27;5.47;;;;;;;;;;5070067;28;20033;-60
2023/06/13 01:18:07;;;;;;;16.77;10.77;;;;;;;;;;5069925;28;20029;-60
2023/06/13 01:20:33;;;;;;;13.65;6.47;;;;;;;;;;5069758;28;20016;-60
2023/06/13 01:23:25;;;;;;;8.77;4.68;;;;;;;;;;5069869;28;20025;-60
2023/06/13 01:26:10;;;;;;;6.22;4.82;;;;;;;;;;5069734;28;20036;-59
2023/06/13 01:28:37;;;;;;;8.55;4.78;;;;;;;;;;5068940;28;20123;-60
2023/06/13 01:31:06;;;;;;;11.88;5.32;;;;;;;;;;5056567;28;20483;-60
2023/06/13 01:33:32;;;;;;;10.20;6.82;;;;;;;;;;5069380;28;20032;-61
2023/06/13 01:35:59;;;;;;;6.63;5.07;;;;;;;;;;5069507;28;20075;-60
2023/06/13 01:38:25;;;;;;;10.25;5.88;;;;;;;;;;5069555;28;20056;-61
2023/06/13 01:40:51;;;;;;;11.27;4.80;;;;;;;;;;5069403;28;20074;-60
2023/06/13 01:43:18;;;;;;;9.32;5.35;;;;;;;;;;5069402;28;20764;-60
2023/06/13 01:45:44;;;;;;;24.92;17.67;;;;;;;;;;5069755;28;20040;-59
2023/06/13 01:48:13;;;;;;;8.18;6.10;;;;;;;;;;5068844;28;20032;-60
2023/06/13 01:50:51;;;;;;;6.90;5.10;;;;;;;;;;5069499;28;20023;-60
2023/06/13 01:53:36;;;;;;;8.57;5.13;;;;;;;;;;5068972;28;20027;-60
2023/06/13 01:56:05;;;;;;;6.03;4.35;;;;;;;;;;5068857;28;20025;-60
2023/06/13 01:58:44;;;;;;;12.40;5.00;;;;;;;;;;5069175;28;20024;-60
2023/06/13 02:01:10;;;;;;;7.95;6.32;;;;;;;;;;5068953;28;20032;-60
2023/06/13 02:03:37;;;;;;;8.10;4.28;;;;;;;;;;5068820;28;20033;-60
2023/06/13 02:06:03;;;;;;;7.65;4.57;;;;;;;;;;5068967;28;20028;-60
2023/06/13 02:08:31;;;;;;;11.32;5.05;;;;;;;;;;5069038;28;20041;-60
2023/06/13 02:10:58;;;;;;;6.90;4.22;;;;;;;;;;5069372;28;20016;-60
2023/06/13 02:13:24;;;;;;;9.60;5.10;;;;;;;;;;5068804;28;20024;-60
2023/06/13 02:15:50;;;;;;;7.28;4.75;;;;;;;;;;5068962;28;20036;-60
2023/06/13 02:18:16;;;;;;;9.25;5.07;;;;;;;;;;5069123;28;20142;-60
2023/06/13 02:20:43;;;;;;;6.60;3.90;;;;;;;;;;5068855;28;20185;-61
2023/06/13 02:23:10;;;;;;;6.07;5.03;;;;;;;;;;5068980;28;20025;-60
2023/06/13 02:25:36;;;;;;;11.88;4.72;;;;;;;;;;5068990;28;20032;-60
2023/06/13 02:28:02;;;;;;;8.60;4.43;;;;;;;;;;5068480;28;20078;-60
2023/06/13 02:30:28;;;;;;;7.03;4.35;;;;;;;;;;5069330;28;20021;-59
2023/06/13 02:32:54;;;;;;;9.90;4.32;;;;;;;;;;5069214;28;20099;-60
2023/06/13 02:35:23;;;;;;;6.60;4.45;;;461.00;2380.80;;;;;;5068535;28;20028;-60
2023/06/13 02:37:56;;;;;;;5.47;4.03;;;460.80;2380.80;;;;;;5068205;28;20044;-60
2023/06/13 02:40:22;;;;;;;7.95;3.97;;;436.10;2355.20;;;;;;5068759;28;20404;-59
2023/06/13 02:42:50;;;;;;;5.85;3.95;;;436.10;2355.20;;;;;;5068950;28;20131;-60
2023/06/13 02:45:16;;;;;;;14.35;4.65;;;436.10;2355.20;;;;;;5068874;28;20035;-60
2023/06/13 02:47:43;;;;;;;6.90;4.13;;;436.10;2355.20;;;;;;5068615;28;20074;-60
2023/06/13 02:50:09;;;;;;;8.38;4.05;;;436.10;2355.20;;;;;;5069029;28;20036;-60
2023/06/13 02:52:35;;;;;;;4.93;3.55;;;436.00;2355.20;;;;;;5068141;28;20025;-60
2023/06/13 02:55:02;;;;;;;7.13;4.13;;;436.00;2355.20;;;;;;5068936;28;20067;-60
2023/06/13 02:57:28;;;;;;;5.82;3.53;;;436.00;2355.20;;;;;;5068699;28;20028;-60
2023/06/13 02:59:54;;;;;;;8.50;4.68;;;436.00;2355.20;;;;;;5068437;28;20021;-60
2023/06/13 03:02:20;;;;;;;11.02;4.63;;;436.00;2355.20;;;;;;5068034;28;20020;-60
2023/06/13 03:04:50;;;;;;;14.18;5.88;;;435.90;2355.20;;;;;;5068532;28;20379;-60
2023/06/13 03:07:16;;;;;;;9.38;4.88;;;435.90;2355.20;;;;;;5068215;28;20123;-60
2023/06/13 03:09:42;;;;;;;7.20;4.20;;;435.90;2355.20;;;;;;5071850;28;20100;-60
2023/06/13 03:12:08;;;;;;;6.47;4.70;;;435.90;2355.20;;;;;;5072674;28;20103;-60
2023/06/13 03:14:34;;;;;;;11.20;4.65;;;436.00;2355.20;;;;;;5071993;28;20419;-60
2023/06/13 03:17:02;;;;;;;11.00;4.32;;;435.90;2355.20;;;;;;5072152;28;20028;-61
2023/06/13 03:19:28;;;;;;;7.07;4.93;;;435.90;2355.20;;;;;;5072437;28;20531;-60
2023/06/13 03:21:54;;;;;;;7.60;4.13;;;436.00;2355.20;;;;;;5053416;28;20127;-60
2023/06/13 03:24:20;;;;;;;5.70;4.05;;;435.90;2355.20;;;;;;5071989;28;20090;-60
2023/06/13 03:26:46;;;;;;;5.65;3.70;;;436.00;2355.20;;;;;;5072078;28;20151;-60
2023/06/13 03:29:12;;;;;;;9.10;4.45;;;435.90;2355.20;;;;;;5071877;28;20447;-60
2023/06/13 03:31:38;;;;;;;8.38;4.88;;;435.90;2355.20;;;;;;5072204;28;20024;-60
2023/06/13 03:34:06;;;;;;;5.07;4.25;;;435.90;2355.20;;;;;;5071584;28;20039;-60
2023/06/13 03:36:34;;;;;;;7.10;4.18;;;435.90;2355.20;;;;;;5071384;28;20053;-60
2023/06/13 03:39:00;;;;;;;8.50;4.75;;;435.90;2355.20;;;;;;5071893;28;20090;-60
2023/06/13 03:41:26;;;;;;;9.32;4.32;;;435.90;2355.20;;;;;;5071854;28;20035;-60
2023/06/13 03:43:52;;;;;;;11.00;4.97;;;436.00;2355.20;;;;;;5071414;28;20091;-60
2023/06/13 03:46:17;;;;;;;8.85;4.70;;;436.00;2355.20;;;;;;5071968;28;20347;-60
2023/06/13 03:48:43;;;;;;;9.85;5.13;;;436.00;2355.20;;;;;;5071324;28;20086;-60
2023/06/13 03:51:09;;;;;;;11.77;6.15;;;436.00;2355.20;;;;;;5071106;28;20128;-60
2023/06/13 03:53:35;;;;;;;9.18;5.80;;;436.10;2355.20;;;;;;5071755;28;20021;-60
2023/06/13 03:56:02;;;;;;;7.15;5.53;;;436.10;2355.20;;;;;;5071932;28;20382;-60
2023/06/13 03:58:28;;;;;;;8.48;4.80;;;436.10;2355.20;;;;;;5071844;28;20028;-60
2023/06/13 04:00:54;;;;;;;8.73;5.18;;;436.10;2355.20;;;;;;5071854;28;20028;-60
2023/06/13 04:03:20;;;;;;;8.85;4.97;;;460.80;2380.80;;;;;;5071164;28;20028;-60
2023/06/13 04:05:45;;;;;;;20.92;6.13;;;460.80;2380.80;;;;;;5071422;28;20043;-60
2023/06/13 04:08:12;;;;;;;9.60;5.63;;;460.80;2380.80;;;;;;5070547;28;20124;-60
2023/06/13 04:10:37;;;;;;;7.47;5.28;;;460.90;2380.80;;;;;;5071667;28;20103;-60
2023/06/13 04:13:03;;;;;;;9.57;4.75;;;460.90;2380.80;;;;;;5071388;28;20518;-60
2023/06/13 04:15:29;;;;;;;11.82;5.93;;;460.90;2380.80;;;;;;5071477;28;20027;-60
2023/06/13 04:17:55;;;;;;;8.90;4.82;;;461.00;2380.80;;;;;;5071195;28;20021;-60
2023/06/13 04:20:24;;;;;;;7.72;5.20;;;460.90;2380.80;;;;;;5070887;28;20078;-60
2023/06/13 04:22:51;;;;;;;6.93;4.80;;;461.00;2380.80;;;;;;5070484;28;20559;-63
2023/06/13 04:25:17;;;;;;;11.00;5.25;;;460.80;2380.80;;;;;;5071067;28;20032;-62
2023/06/13 04:27:44;;;;;;;8.77;4.60;;;460.90;2380.80;;;;;;5070764;28;20166;-61
2023/06/13 04:30:11;;;;;;;7.45;4.70;;;460.90;2380.80;;;;;;5071314;28;20437;-61
2023/06/13 04:32:37;;;;;;;9.55;5.43;;;461.00;2380.80;;;;;;5071036;28;20024;-62
2023/06/13 04:35:04;;;;;;;8.57;4.97;;;460.90;2380.80;;;;;;5070668;28;20386;-63
2023/06/13 04:37:30;;;;;;;17.05;5.72;;;461.00;2380.80;;;;;;5070273;28;20060;-62
2023/06/13 04:39:57;;;;;;;5.85;4.53;;;461.00;2380.80;;;;;;5070847;28;20382;-62
2023/06/13 04:42:27;;;;;;;8.48;4.50;;;461.10;2380.80;;;;;;5070678;28;20458;-62
2023/06/13 04:45:02;;;;;;;16.65;5.25;;;461.10;2380.80;;;;;;5070993;28;20077;-62
2023/06/13 04:47:33;;;;;;;8.77;5.07;;;461.00;2380.80;;;;;;5070596;28;20955;-61
2023/06/13 04:49:59;;;;;;;9.65;5.38;;;461.00;2380.80;;;;;;5070372;28;20426;-63
2023/06/13 04:52:35;;;;;;;11.25;4.28;;;461.00;2380.80;;;;;;5070357;28;20024;-59
2023/06/13 04:55:03;;;;;;;12.32;5.65;;;461.10;2380.80;;;;;;5070550;28;20074;-62
2023/06/13 04:57:30;;;;;;;8.82;4.95;;;461.10;2380.80;;;;;;5070944;28;20112;-62
2023/06/13 04:59:57;;;;;;;10.77;5.72;;;461.00;2380.80;;;;;;5070356;28;20039;-62
2023/06/13 05:02:23;;;;;;;6.47;4.75;;;461.10;2380.80;;;;;;5070227;28;20103;-62
2023/06/13 05:04:49;;;;;;;9.02;4.43;;;461.20;2380.80;;;;;;5070013;28;20063;-62
2023/06/13 05:07:16;;;;;;;8.98;4.78;;;461.30;2380.80;;;;;;5070122;28;20042;-61
2023/06/13 05:09:45;;;;;;;11.35;5.13;;;461.40;2380.80;;;;;;5070411;28;20020;-62
2023/06/13 05:12:12;;;;;;;15.65;5.18;;;461.50;2380.80;;;;;;5070054;28;20028;-62
2023/06/13 05:14:40;;;;;;;11.65;5.30;;;461.50;2380.80;;;;;;5070256;28;20019;-62
2023/06/13 05:17:06;;;;;;;15.38;4.88;;;461.40;2380.80;;;;;;5070211;28;20063;-62
2023/06/13 05:19:37;;;;;;;9.52;5.00;;;461.50;2380.80;;;;;;5069650;28;20424;-62
2023/06/13 05:22:05;;;;;;;9.32;5.20;;;461.40;2380.80;;;;;;5069681;28;20493;-60
2023/06/13 05:24:31;;;;;;;11.68;4.78;;;461.70;2380.80;;;;;;5069799;28;20462;-62
2023/06/13 05:27:00;;;;;;;6.22;4.65;;;486.50;2380.80;;;;;;5070014;28;20198;-62
2023/06/13 05:29:26;;;;;;;7.13;4.85;;;486.50;2380.80;;;;;;5069755;28;20039;-61
2023/06/13 05:31:53;;;;;;;7.93;4.38;;;486.60;2380.80;;;;;;5069018;28;20059;-60
2023/06/13 05:34:19;;;;;;;8.98;5.30;;;486.60;2380.80;;;;;;5069711;28;20587;-61
2023/06/13 05:36:45;;;;;;;6.30;4.85;;;486.60;2380.80;;;;;;5069877;28;20087;-59
2023/06/13 05:39:13;;;;;;;7.97;4.57;;;486.70;2380.80;;;;;;5069119;28;20479;-61
2023/06/13 05:41:42;;;;;;;8.63;5.18;;;486.70;2380.80;;;;;;5070136;28;20024;-64
2023/06/13 05:44:08;;;;;;;9.13;5.07;;;486.50;2380.80;;;;;;5069571;28;20470;-62
2023/06/13 05:46:34;;;;;;;10.63;4.65;;;486.40;2380.80;;;;;;5069615;28;20048;-59
2023/06/13 05:48:59;;;;;;;7.50;5.25;;;486.40;2380.80;;;;;;5069200;28;20060;-62
2023/06/13 05:51:25;;;;;;;6.70;4.60;;;486.40;2380.80;;;;;;5069639;28;20044;-62
2023/06/13 05:53:51;;;;;;;10.32;5.65;;;461.70;2380.80;;;;;;5069450;28;20016;-62
2023/06/13 05:56:17;;;;;;;10.07;3.90;;;461.70;2380.80;;;;;;5069676;28;20020;-63
2023/06/13 05:58:44;;;;;;;6.78;4.40;;;461.70;2380.80;;;;;;5069206;28;20524;-62
2023/06/13 06:01:12;;;;;;;7.63;4.28;;;461.60;2380.80;;;;;;5069296;28;20078;-63
2023/06/13 06:03:38;;;;;;;6.07;3.97;;;461.50;2380.80;;;;;;5068767;28;20428;-63
2023/06/13 06:06:04;;;;;;;6.72;4.35;;;461.40;2380.80;;;;;;5069493;28;20053;-62
2023/06/13 06:08:30;;;;;;;7.90;4.63;;;461.50;2380.80;;;;;;5068715;28;20516;-60
2023/06/13 06:10:56;;;;;;;6.50;4.47;;;461.50;2380.80;;;;;;5069102;28;20063;-60
2023/06/13 06:13:22;;;;;;;6.63;4.40;;;461.70;2380.80;;;;;;5068965;28;20056;-60
2023/06/13 06:15:48;;;;;;;5.38;4.28;;;486.40;2380.80;;;;;;5068756;28;20115;-60
2023/06/13 06:18:13;;;;;;;7.55;4.47;;;486.70;2380.80;;;;;;5071306;28;20081;-61
2023/06/13 06:20:39;;;;;;;7.20;4.20;;;487.00;2380.80;;;;;;5072824;28;20024;-61
2023/06/13 06:23:05;;;;;;;7.38;4.32;;;487.20;2380.80;;;;;;5072501;28;20462;-60
2023/06/13 06:25:32;;;;;;;7.60;4.55;;;512.20;2380.80;;;;;;5072956;28;20029;-61
2023/06/13 06:27:57;;;;;;;5.75;3.70;;;512.60;2380.80;;;;;;5072693;28;20055;-61
2023/06/13 06:30:23;;;;;;;8.77;3.42;;;;;;;;;;5072868;28;20021;-59
2023/06/13 06:32:50;;;;;;;7.53;3.80;;;;;;;;;;5073005;28;20370;-61
2023/06/13 06:35:15;;;;;;;7.22;4.35;;;537.90;2406.40;;;;;;5072628;28;20453;-60
2023/06/13 06:37:43;;;;;;;6.13;3.63;;;589.10;2432.00;;;;;;5072433;28;20083;-60
2023/06/13 06:40:09;;;;;;;6.55;4.18;;;589.70;2432.00;;;;;;5072522;28;20028;-60
2023/06/13 06:42:35;;;;;;;5.88;3.70;;;614.60;2380.80;;;;;;5074692;28;20017;-61
2023/06/13 06:45:02;;;;;;;6.40;3.90;;;614.90;2355.20;;;;;;5076565;28;20036;-60
2023/06/13 06:47:28;;;;;;;8.35;4.07;;;666.50;2124.80;;;;;;5076996;28;20103;-61
2023/06/13 06:49:54;;;;;;;6.30;4.78;;;691.70;1996.80;;;;;;5076433;28;20071;-62
2023/06/13 06:52:19;;;;;;;9.60;5.05;;;692.00;1945.60;;;;;;5076333;28;20458;-60
2023/06/13 06:54:45;;;;;;;4.82;3.97;;;768.10;1766.40;;;;;;5076430;28;20036;-61
2023/06/13 06:57:11;;;;;;;5.28;3.97;;;743.20;1792.00;;;;;;5076652;28;20400;-62
2023/06/13 06:59:37;;;;;;;6.18;3.50;;;717.40;1817.60;;;;;;5076421;28;20025;-62
2023/06/13 07:02:03;;;;;;;5.80;4.22;;;691.60;1920.00;;;;;;5076255;28;20477;-61
2023/06/13 07:04:29;;;;;;;5.88;3.83;;;665.60;1996.80;;;;;;5076356;28;20074;-60
2023/06/13 07:06:55;;;;;;;6.90;4.40;;;640.60;2022.40;;;;;;5066607;28;20655;-60
2023/06/13 07:09:21;;;;;;;7.35;3.53;;;615.10;2124.80;;;;;;5056235;28;20025;-60
2023/06/13 07:11:46;;;;;;;6.72;3.95;;;614.80;2124.80;;;;;;5056333;28;20091;-60
2023/06/13 07:14:12;;;;;;;6.20;4.03;;;589.70;2176.00;;;;;;5061380;28;20063;-60
2023/06/13 07:16:38;;;;;;;5.57;4.00;;;589.70;2176.00;;;;;;5064726;28;20237;-59
2023/06/13 07:19:04;;;;;;;4.45;3.90;;;614.60;2176.00;;;;;;5060879;28;20025;-60
2023/06/13 07:21:29;;;;;;;4.72;3.92;;;640.60;2048.00;;;;;;5059660;28;20029;-61
2023/06/13 07:23:55;;;;;;;8.23;3.88;;;666.30;1996.80;;;;;;5059243;28;20053;-63
2023/06/13 07:26:21;;;;;;;5.68;4.13;;;692.10;1894.40;;;;;;5058225;28;20025;-60
2023/06/13 07:28:47;;;;;;;6.72;4.05;;;691.90;1894.40;;;;;;5062102;28;20037;-63
2023/06/13 07:31:13;;;;;;;5.35;4.63;;;692.00;1894.40;;;;;;5059834;28;20458;-60
2023/06/13 07:33:39;;;;;;;6.75;4.25;;;716.90;1843.20;;;;;;5054023;28;20040;-60
2023/06/13 07:36:06;;;;;;;5.82;4.93;;;717.10;1868.80;;;;;;5060750;28;20044;-61
2023/06/13 07:38:31;;;;;;;6.15;5.40;;;845.20;1689.60;;;;;;5056036;28;20067;-61
2023/06/13 07:40:57;;;;;;;6.57;5.47;;;;;;;;;;5056758;28;20055;-62
2023/06/13 07:43:23;;;;;;;6.68;3.85;;;922.30;1459.20;;;;;;5058063;28;20021;-60
2023/06/13 07:45:49;;;;;;;7.22;4.85;;;;;;;;;;5059966;28;20027;-60
2023/06/13 07:48:16;;;;;;;4.22;3.83;;;921.60;1408.00;;;;;;5067629;28;20029;-65
2023/06/13 07:50:42;;;;;;;6.20;5.03;;;870.60;1459.20;;;;;;5059635;28;20438;-62
2023/06/13 07:53:08;;;;;;;9.98;4.38;;;;;;;;;;5051985;28;20111;-62
2023/06/13 07:55:34;;;;;;;5.15;4.20;;;845.30;1536.00;;;;;;5052551;28;20441;-62
2023/06/13 07:58:00;;;;;;;6.22;4.72;;;794.40;1587.20;;;;;;5066103;28;20040;-60
2023/06/13 08:00:26;;;;;;;4.38;3.95;;;768.80;1612.80;;;;;;5062141;28;20033;-61
2023/06/13 08:02:52;;;;;;;5.57;3.88;;;743.10;1664.00;;;;;;5058173;28;20050;-62
2023/06/13 08:05:18;;;;;;;6.82;3.55;;;;;;;;;;5059674;28;20447;-62
2023/06/13 08:07:43;;;;;;;5.82;4.05;;;717.60;1740.80;;;;;;5060642;28;20471;-65
2023/06/13 08:10:09;;;;;;;7.35;4.10;;;;;;;;;;5058473;28;20077;-61
2023/06/13 08:12:35;;;;;;;6.72;3.97;;;691.70;1792.00;;;;;;5056299;28;20025;-62
2023/06/13 08:15:01;;;;;;;6.20;3.72;;;665.70;1894.40;;;;;;5062230;28;20385;-58
2023/06/13 08:17:27;;;;;;;10.25;3.70;;;;;;;;;;5057720;28;20039;-61
2023/06/13 08:19:53;;;;;;;4.78;3.88;;;640.40;1920.00;;;;;;5060775;28;20021;-59
2023/06/13 08:22:19;;;;;;;4.82;3.55;;;615.20;1920.00;;;;;;5055245;28;20032;-60
2023/06/13 08:24:45;;;;;;;5.60;4.60;;;615.00;1996.80;;;;;;5059117;28;20025;-60
2023/06/13 08:27:14;;;;;;;7.20;4.25;;;615.00;1996.80;;;;;;5054778;28;20053;-61
2023/06/13 08:29:41;;;;;;;4.80;3.40;;;615.00;2022.40;;;;;;5052339;28;20100;-60
2023/06/13 08:32:07;;;;;;;6.38;3.78;;;614.80;2022.40;;;;;;5060401;28;20032;-59
2023/06/13 08:34:33;;;;;;;5.03;3.63;;;615.00;2048.00;;;;;;5064108;28;20025;-61
2023/06/13 08:36:59;;;;;;;6.85;4.15;;;615.20;2048.00;;;;;;5065288;28;20055;-60
2023/06/13 08:39:25;;;;;;;7.07;3.80;;;615.30;1996.80;;;;;;5070733;28;20468;-61
2023/06/13 08:41:53;;;;;;;6.07;3.55;;;615.10;1996.80;;;;;;5070828;28;20031;-60
2023/06/13 08:44:20;;;;;;;7.00;3.92;;;614.90;2022.40;;;;;;5071000;28;20039;-60
2023/06/13 08:46:45;;;;;;;4.97;4.00;;;615.20;2022.40;;;;;;5070830;28;20028;-60
2023/06/13 08:49:11;;;;;;;7.88;4.10;;;615.20;1971.20;;;;;;5070449;28;20107;-61
2023/06/13 08:51:37;;;;;;;5.35;3.85;;;640.20;1971.20;;;;;;5070964;28;20351;-60
2023/06/13 08:54:04;;;;;;;5.95;3.13;;;640.30;1971.20;;;;;;5070429;28;20115;-60
2023/06/13 08:56:38;;;;;;;6.35;3.55;;;640.70;1945.60;;;;;;5070407;28;20023;-60
2023/06/13 08:59:26;;;;;;;6.35;3.65;;;640.60;1868.80;;;;;;5070596;28;20029;-60
2023/06/13 09:01:53;;;;;;;8.02;3.45;;;665.60;1894.40;;;;;;5069958;28;20073;-60
2023/06/13 09:04:19;;;;;;;8.27;4.90;;;665.60;1894.40;;;;;;5070609;28;20398;-60
2023/06/13 09:06:46;;;;;;;5.40;3.65;;;640.90;1843.20;;;;;;5069262;28;20028;-60
2023/06/13 09:09:16;;;;;;;7.85;3.58;;;666.00;1894.40;;;;;;5070031;28;20036;-60
2023/06/13 09:11:42;;;;;;;4.53;3.42;;;665.90;1868.80;;;;;;5070550;28;20028;-61
2023/06/13 09:14:09;;;;;;;6.50;3.58;;;665.70;1894.40;;;;;;5070306;28;20021;-62
2023/06/13 09:16:35;;;;;;;5.93;3.25;;;665.90;1894.40;;;;;;5070048;28;20493;-61
2023/06/13 09:19:00;;;;;;;9.73;3.92;;;666.20;1843.20;;;;;;5070444;28;20059;-60
2023/06/13 09:21:27;;;;;;;6.00;3.92;;;691.20;1868.80;;;;;;5070372;28;20394;-60
2023/06/13 09:23:56;;;;;;;4.97;3.88;;;691.40;1843.20;;;;;;5069728;28;20025;-60
2023/06/13 09:26:22;;;;;;;5.65;3.80;;;691.30;1868.80;;;;;;5070062;28;20028;-59
2023/06/13 09:28:48;;;;;;;5.53;4.30;;;691.30;1868.80;;;;;;5070116;28;20355;-60
2023/06/13 09:31:14;;;;;;;6.47;4.43;;;691.50;1868.80;;;;;;5069443;28;20023;-60
2023/06/13 09:33:42;;;;;;;4.18;3.33;;;691.90;1843.20;;;;;;5070053;28;20370;-61
2023/06/13 09:36:09;;;;;;;4.45;3.67;;;692.10;1766.40;;;;;;5069674;28;20509;-60
2023/06/13 09:38:37;;;;;;;4.53;3.40;;;691.90;1843.20;;;;;;5069314;28;20448;-60
2023/06/13 09:41:07;;;;;;;6.38;4.07;;;691.80;1843.20;;;;;;5069482;28;20066;-60
2023/06/13 09:43:33;;;;;;;5.82;4.00;;;691.80;1766.40;;;;;;5069670;28;20025;-60
2023/06/13 09:46:00;;;;;;;5.65;3.47;;;691.70;1894.40;;;;;;5069594;28;20043;-61
2023/06/13 09:48:26;;;;;;;5.15;3.60;;;691.40;1868.80;;;;;;5069402;28;20445;-64
2023/06/13 09:50:52;;;;;;;4.93;3.78;;;691.30;1817.60;;;;;;5069225;28;20024;-59
2023/06/13 09:53:18;;;;;;;6.07;3.45;;;666.30;1894.40;;;;;;5069367;28;20070;-60
2023/06/13 09:55:44;;;;;;;5.95;4.32;;;691.20;1920.00;;;;;;5069367;28;20104;-60
2023/06/13 09:58:10;;;;;;;6.90;3.85;;;666.40;1868.80;;;;;;5069685;28;20107;-59
2023/06/13 10:00:36;;;;;;;11.65;3.65;;;666.30;1920.00;;;;;;5060333;28;20103;-61
2023/06/13 10:03:02;;;;;;;6.22;3.58;;;666.20;1945.60;;;;;;5060663;28;20548;-60
2023/06/13 10:05:29;;;;;;;8.25;3.53;;;666.30;1945.60;;;;;;5069443;28;20028;-60
2023/06/13 10:07:55;;;;;;;8.68;4.07;;;666.40;1920.00;;;;;;5069081;28;20543;-60
2023/06/13 10:10:21;;;;;;;5.18;3.72;;;666.30;1971.20;;;;;;5069226;28;20021;-60
2023/06/13 10:12:59;;;;;;;7.22;3.63;;;666.10;1920.00;;;;;;5069339;28;20111;-60
2023/06/13 10:15:39;;;;;;;7.43;3.70;;;666.00;1894.40;;;;;;5069533;28;20467;-64
2023/06/13 10:18:10;;;;;;;5.45;3.80;;;665.60;1920.00;;;;;;5069182;28;20036;-60
2023/06/13 10:20:39;;;;;;;6.13;3.38;;;640.70;1843.20;;;;;;5069323;28;20025;-60
2023/06/13 10:23:08;;;;;;;5.55;3.17;;;640.70;1817.60;;;;;;5068821;28;20486;-60
2023/06/13 10:25:34;;;;;;;5.20;3.50;;;640.70;1817.60;;;;;;5069111;28;20428;-60
2023/06/13 10:28:18;;;;;;;7.78;3.67;;;640.70;1792.00;;;;;;5068819;28;20036;-62
2023/06/13 10:31:04;;;;;;;6.75;3.65;;;640.40;1792.00;;;;;;5068730;28;20053;-60
2023/06/13 10:34:09;;;;;;;7.57;3.20;;;640.40;1766.40;;;;;;5069382;28;20378;-61
2023/06/13 10:36:56;;;;;;;4.38;3.03;;;640.00;1792.00;;;;;;5068734;28;20048;-60
2023/06/13 10:39:22;;;;;;;6.82;3.58;;;640.10;1766.40;;;;;;5068614;28;20029;-60
2023/06/13 10:41:51;;;;;;;4.88;3.15;;;640.20;1766.40;;;;;;5068904;28;20024;-60
2023/06/13 10:44:47;;;;;;;5.55;3.25;;;640.40;1766.40;;;;;;5069321;28;20025;-60
2023/06/13 10:47:19;;;;;;;4.82;3.15;;;640.40;1715.20;;;;;;5050810;28;20135;-60
2023/06/13 10:49:48;;;;;;;5.30;3.20;;;640.80;1792.00;;;;;;5068981;28;20462;-60
2023/06/13 10:52:15;;;;;;;5.90;3.33;;;665.60;1715.20;;;;;;5068787;28;20008;-60
2023/06/13 10:54:41;;;;;;;7.15;3.25;;;666.00;1664.00;;;;;;5068438;28;20035;-60
2023/06/13 10:57:07;;;;;;;10.25;4.10;;;691.20;1689.60;;;;;;5068802;28;20428;-60
2023/06/13 10:59:39;;;;;;;6.75;3.58;;;691.60;1638.40;;;;;;5068254;28;20481;-60
2023/06/13 11:02:14;;;;;;;5.60;3.23;;;666.00;1664.00;;;;;;5068672;28;20039;-60
2023/06/13 11:04:40;;;;;;;6.07;3.45;;;666.00;1689.60;;;;;;5068668;28;20257;-61
2023/06/13 11:07:36;;;;;;;4.35;3.63;;;665.90;1664.00;;;;;;5069088;28;20032;-60
2023/06/13 11:10:16;;;;;;;5.97;3.47;;;666.00;1715.20;;;;;;5006432;28;20042;-61
2023/06/13 11:12:43;;;;;;;8.13;3.67;;;691.20;1715.20;;;;;;5006348;28;20117;-60
2023/06/13 11:15:23;;;;;;;6.72;3.92;;;666.20;1664.00;;;;;;5006946;28;20113;-60
2023/06/13 11:18:06;;;;;;;7.80;3.67;;;666.20;1689.60;;;;;;5006812;28;20061;-60
2023/06/13 11:20:32;;;;;;;6.15;3.92;;;666.50;1664.00;;;;;;5006319;28;20041;-61
2023/06/13 11:22:57;;;;;;;7.38;3.85;;;665.90;1689.60;;;;;;5006537;28;20022;-60
2023/06/13 11:25:24;;;;;;;6.15;4.05;;;665.80;1689.60;;;;;;5006520;28;20030;-60
2023/06/13 11:27:50;;;;;;;4.97;4.10;;;665.70;1638.40;;;;;;5006228;28;20474;-60
2023/06/13 11:30:17;;;;;;;6.32;4.43;;;665.70;1689.60;;;;;;5009752;28;20124;-61
2023/06/13 11:32:44;;;;;;;5.32;3.80;;;665.90;1689.60;;;;;;5010309;28;20503;-61
2023/06/13 11:35:10;;;;;;;5.47;3.85;;;640.70;1689.60;;;;;;5010221;28;20030;-60
2023/06/13 11:37:44;;;;;;;5.72;4.03;;;665.60;1766.40;;;;;;5009730;28;20062;-60
2023/06/13 11:40:19;;;;;;;6.20;4.13;;;665.90;1715.20;;;;;;5010071;28;20125;-61
2023/06/13 11:42:45;;;;;;;5.13;3.90;;;666.20;1689.60;;;;;;5009976;28;20069;-60
2023/06/13 11:45:11;;;;;;;6.65;3.78;;;666.10;1766.40;;;;;;5009861;28;20591;-60
2023/06/13 11:47:36;;;;;;;9.18;4.55;;;665.70;1715.20;;;;;;5050066;28;20044;-61
2023/06/13 11:50:02;;;;;;;4.85;3.53;;;640.70;1689.60;;;;;;5051584;28;20437;-62
2023/06/13 11:52:28;;;;;;;7.15;3.58;;;665.70;1715.20;;;;;;5051955;28;20021;-61
2023/06/13 11:54:54;;;;;;;4.97;3.97;;;665.80;1740.80;;;;;;5051853;28;20025;-66
2023/06/13 11:57:20;;;;;;;4.93;3.40;;;640.90;1664.00;;;;;;5051645;28;20110;-64
2023/06/13 11:59:45;;;;;;;6.13;3.50;;;665.70;1689.60;;;;;;5051855;28;20518;-62
2023/06/13 12:02:15;;;;;;;5.97;3.78;;;666.00;1715.20;;;;;;5051777;28;20023;-62
2023/06/13 12:04:42;;;;;;;7.22;4.38;;;666.00;1715.20;;;;;;5051158;28;20119;-62
2023/06/13 12:07:08;;;;;;;8.05;4.30;;;665.70;1715.20;;;;;;5051626;28;20028;-62
2023/06/13 12:09:34;;;;;;;5.50;3.83;;;665.70;1715.20;;;;;;5051442;28;20078;-63
2023/06/13 12:12:02;;;;;;;7.60;4.93;;;665.70;1689.60;;;;;;5051397;28;20029;-63
2023/06/13 12:14:28;;;;;;;6.28;4.28;;;665.70;1740.80;;;;;;5051655;28;20043;-61
2023/06/13 12:16:54;;;;;;;6.95;3.85;;;640.80;1715.20;;;;;;5051401;28;20024;-62
2023/06/13 12:19:22;;;;;;;5.25;4.45;;;665.70;1740.80;;;;;;5051465;28;20374;-62
2023/06/13 12:21:53;;;;;;;5.15;4.28;;;640.80;1638.40;;;;;;5051135;28;20025;-62
2023/06/13 12:24:20;;;;;;;12.98;4.55;;;665.60;1638.40;;;;;;5051552;28;20036;-62
2023/06/13 12:26:47;;;;;;;4.93;3.83;;;665.80;1664.00;;;;;;5051636;28;20074;-63
2023/06/13 12:29:13;;;;;;;12.20;4.30;;;665.60;1638.40;;;;;;5050832;28;20028;-62
2023/06/13 12:31:42;;;;;;;7.88;4.18;;;665.60;1664.00;;;;;;5051101;28;20619;-63
2023/06/13 12:34:18;;;;;;;7.70;4.00;;;665.60;1715.20;;;;;;5050558;28;20028;-62
2023/06/13 12:36:45;;;;;;;8.02;4.30;;;665.60;1689.60;;;;;;5061980;28;20055;-62
2023/06/13 12:39:16;;;;;;;5.65;4.07;;;640.80;1664.00;;;;;;5070587;28;20028;-62
2023/06/13 12:41:47;;;;;;;6.97;4.30;;;665.60;1715.20;;;;;;5070952;28;20072;-62
2023/06/13 12:44:13;;;;;;;8.07;4.68;;;640.90;1715.20;;;;;;5070831;28;20576;-62
2023/06/13 12:46:39;;;;;;;11.02;4.45;;;665.80;1715.20;;;;;;5071358;28;20491;-62